sensor_id;sensor_type;location;lat;lon;timestamp;P1;durP1;ratioP1;P2;durP2;ratioP2
57643;SDS011;43474;46.510;6.686;2023-11-22T00:01:52;1.20;;;1.13;;
57643;SDS011;43474;46.510;6.686;2023-11-22T00:04:19;1.80;;;1.27;;
57643;SDS011;43474;46.510;6.686;2023-11-22T00:06:45;3.03;;;1.25;;
57643;SDS011;43474;46.510;6.686;2023-11-22T00:09:11;1.55;;;1.40;;
57643;SDS011;43474;46.510;6.686;2023-11-22T00:11:36;1.92;;;1.30;;
57643;SDS011;43474;46.510;6.686;2023-11-22T00:14:02;1.48;;;1.13;;
57643;SDS011;43474;46.510;6.686;2023-11-22T00:16:28;1.55;;;1.10;;
57643;SDS011;43474;46.510;6.686;2023-11-22T00:18:56;2.28;;;1.23;;
57643;SDS011;43474;46.510;6.686;2023-11-22T00:21:21;2.13;;;1.20;;
57643;SDS011;43474;46.510;6.686;2023-11-22T00:23:47;2.63;;;1.73;;
57643;SDS011;43474;46.510;6.686;2023-11-22T00:26:12;2.17;;;1.45;;
57643;SDS011;43474;46.510;6.686;2023-11-22T00:28:38;1.88;;;1.35;;
57643;SDS011;43474;46.510;6.686;2023-11-22T00:31:04;2.42;;;1.60;;
57643;SDS011;43474;46.510;6.686;2023-11-22T00:33:29;1.35;;;1.10;;
57643;SDS011;43474;46.510;6.686;2023-11-22T00:35:56;1.05;;;1.02;;
57643;SDS011;43474;46.510;6.686;2023-11-22T00:38:23;1.58;;;0.85;;
57643;SDS011;43474;46.510;6.686;2023-11-22T00:40:49;1.25;;;0.80;;
57643;SDS011;43474;46.510;6.686;2023-11-22T00:43:15;1.73;;;0.98;;
57643;SDS011;43474;46.510;6.686;2023-11-22T00:45:41;3.42;;;1.25;;
57643;SDS011;43474;46.510;6.686;2023-11-22T00:48:07;3.85;;;1.77;;
57643;SDS011;43474;46.510;6.686;2023-11-22T00:50:32;1.15;;;1.05;;
57643;SDS011;43474;46.510;6.686;2023-11-22T00:52:58;1.90;;;1.15;;
57643;SDS011;43474;46.510;6.686;2023-11-22T00:55:24;1.45;;;1.08;;
57643;SDS011;43474;46.510;6.686;2023-11-22T00:57:49;2.42;;;1.13;;
57643;SDS011;43474;46.510;6.686;2023-11-22T01:00:15;2.30;;;1.98;;
57643;SDS011;43474;46.510;6.686;2023-11-22T01:02:41;1.52;;;1.33;;
57643;SDS011;43474;46.510;6.686;2023-11-22T01:05:07;3.10;;;1.67;;
57643;SDS011;43474;46.510;6.686;2023-11-22T01:07:36;2.40;;;1.20;;
57643;SDS011;43474;46.510;6.686;2023-11-22T01:10:03;2.83;;;2.15;;
57643;SDS011;43474;46.510;6.686;2023-11-22T01:12:29;2.30;;;1.02;;
57643;SDS011;43474;46.510;6.686;2023-11-22T01:14:55;3.17;;;1.67;;
57643;SDS011;43474;46.510;6.686;2023-11-22T01:17:20;2.60;;;1.50;;
57643;SDS011;43474;46.510;6.686;2023-11-22T01:19:46;2.78;;;1.23;;
57643;SDS011;43474;46.510;6.686;2023-11-22T01:22:12;0.88;;;0.88;;
57643;SDS011;43474;46.510;6.686;2023-11-22T01:24:38;2.85;;;1.55;;
57643;SDS011;43474;46.510;6.686;2023-11-22T01:27:04;2.30;;;1.23;;
57643;SDS011;43474;46.510;6.686;2023-11-22T01:29:30;1.80;;;1.00;;
57643;SDS011;43474;46.510;6.686;2023-11-22T01:31:56;1.40;;;0.73;;
57643;SDS011;43474;46.510;6.686;2023-11-22T01:34:22;2.53;;;1.52;;
57643;SDS011;43474;46.510;6.686;2023-11-22T01:36:50;3.55;;;1.75;;
57643;SDS011;43474;46.510;6.686;2023-11-22T01:39:16;4.32;;;2.35;;
57643;SDS011;43474;46.510;6.686;2023-11-22T01:41:45;2.80;;;1.73;;
57643;SDS011;43474;46.510;6.686;2023-11-22T01:44:11;2.22;;;1.85;;
57643;SDS011;43474;46.510;6.686;2023-11-22T01:46:37;1.48;;;1.20;;
57643;SDS011;43474;46.510;6.686;2023-11-22T01:49:03;3.80;;;1.63;;
57643;SDS011;43474;46.510;6.686;2023-11-22T01:51:29;3.17;;;1.55;;
57643;SDS011;43474;46.510;6.686;2023-11-22T01:53:56;2.30;;;1.45;;
57643;SDS011;43474;46.510;6.686;2023-11-22T01:56:23;3.03;;;1.65;;
57643;SDS011;43474;46.510;6.686;2023-11-22T01:58:52;4.63;;;2.25;;
57643;SDS011;43474;46.510;6.686;2023-11-22T02:01:19;2.58;;;1.50;;
57643;SDS011;43474;46.510;6.686;2023-11-22T02:03:46;2.40;;;1.42;;
57643;SDS011;43474;46.510;6.686;2023-11-22T02:06:14;5.35;;;1.40;;
57643;SDS011;43474;46.510;6.686;2023-11-22T02:08:42;3.17;;;1.73;;
57643;SDS011;43474;46.510;6.686;2023-11-22T02:11:08;0.93;;;0.68;;
57643;SDS011;43474;46.510;6.686;2023-11-22T02:13:34;2.38;;;1.48;;
57643;SDS011;43474;46.510;6.686;2023-11-22T02:15:59;1.95;;;1.30;;
57643;SDS011;43474;46.510;6.686;2023-11-22T02:18:27;2.17;;;1.25;;
57643;SDS011;43474;46.510;6.686;2023-11-22T02:20:53;3.58;;;1.75;;
57643;SDS011;43474;46.510;6.686;2023-11-22T02:23:19;3.08;;;1.48;;
57643;SDS011;43474;46.510;6.686;2023-11-22T02:25:44;5.38;;;2.15;;
57643;SDS011;43474;46.510;6.686;2023-11-22T02:28:11;2.08;;;1.25;;
57643;SDS011;43474;46.510;6.686;2023-11-22T02:30:37;3.97;;;1.30;;
57643;SDS011;43474;46.510;6.686;2023-11-22T02:33:03;1.85;;;1.40;;
57643;SDS011;43474;46.510;6.686;2023-11-22T02:35:32;2.17;;;1.42;;
57643;SDS011;43474;46.510;6.686;2023-11-22T02:37:58;2.08;;;1.38;;
57643;SDS011;43474;46.510;6.686;2023-11-22T02:40:25;2.67;;;1.48;;
57643;SDS011;43474;46.510;6.686;2023-11-22T02:42:52;3.10;;;1.70;;
57643;SDS011;43474;46.510;6.686;2023-11-22T02:45:19;1.77;;;1.55;;
57643;SDS011;43474;46.510;6.686;2023-11-22T02:47:50;3.03;;;1.23;;
57643;SDS011;43474;46.510;6.686;2023-11-22T02:50:16;2.58;;;1.85;;
57643;SDS011;43474;46.510;6.686;2023-11-22T02:52:42;3.47;;;2.00;;
57643;SDS011;43474;46.510;6.686;2023-11-22T02:55:08;2.05;;;1.25;;
57643;SDS011;43474;46.510;6.686;2023-11-22T02:57:37;3.80;;;2.63;;
57643;SDS011;43474;46.510;6.686;2023-11-22T03:00:07;2.63;;;1.98;;
57643;SDS011;43474;46.510;6.686;2023-11-22T03:02:34;6.82;;;2.47;;
57643;SDS011;43474;46.510;6.686;2023-11-22T03:05:00;5.18;;;2.40;;
57643;SDS011;43474;46.510;6.686;2023-11-22T03:07:26;3.38;;;1.48;;
57643;SDS011;43474;46.510;6.686;2023-11-22T03:09:52;2.80;;;1.35;;
57643;SDS011;43474;46.510;6.686;2023-11-22T03:12:18;2.28;;;1.52;;
57643;SDS011;43474;46.510;6.686;2023-11-22T03:14:45;6.30;;;1.50;;
57643;SDS011;43474;46.510;6.686;2023-11-22T03:17:11;1.55;;;0.98;;
57643;SDS011;43474;46.510;6.686;2023-11-22T03:19:38;3.30;;;2.13;;
57643;SDS011;43474;46.510;6.686;2023-11-22T03:22:05;3.13;;;2.13;;
57643;SDS011;43474;46.510;6.686;2023-11-22T03:24:32;4.28;;;1.80;;
57643;SDS011;43474;46.510;6.686;2023-11-22T03:27:00;2.17;;;1.40;;
57643;SDS011;43474;46.510;6.686;2023-11-22T03:29:26;4.25;;;1.67;;
57643;SDS011;43474;46.510;6.686;2023-11-22T03:31:53;2.47;;;1.27;;
57643;SDS011;43474;46.510;6.686;2023-11-22T03:34:19;2.08;;;1.60;;
57643;SDS011;43474;46.510;6.686;2023-11-22T03:36:45;2.10;;;1.83;;
57643;SDS011;43474;46.510;6.686;2023-11-22T03:39:11;5.40;;;1.83;;
57643;SDS011;43474;46.510;6.686;2023-11-22T03:41:37;4.68;;;1.98;;
57643;SDS011;43474;46.510;6.686;2023-11-22T03:44:03;4.32;;;2.10;;
57643;SDS011;43474;46.510;6.686;2023-11-22T03:46:37;1.00;;;0.98;;
57643;SDS011;43474;46.510;6.686;2023-11-22T03:49:04;3.30;;;1.40;;
57643;SDS011;43474;46.510;6.686;2023-11-22T03:51:32;2.75;;;1.98;;
57643;SDS011;43474;46.510;6.686;2023-11-22T03:53:59;1.25;;;1.08;;
57643;SDS011;43474;46.510;6.686;2023-11-22T03:56:25;3.30;;;2.17;;
57643;SDS011;43474;46.510;6.686;2023-11-22T03:58:51;7.72;;;1.45;;
57643;SDS011;43474;46.510;6.686;2023-11-22T04:01:17;2.10;;;1.42;;
57643;SDS011;43474;46.510;6.686;2023-11-22T04:03:44;1.50;;;1.38;;
57643;SDS011;43474;46.510;6.686;2023-11-22T04:06:10;3.47;;;1.75;;
57643;SDS011;43474;46.510;6.686;2023-11-22T04:08:35;3.92;;;2.20;;
57643;SDS011;43474;46.510;6.686;2023-11-22T04:11:03;3.92;;;2.05;;
57643;SDS011;43474;46.510;6.686;2023-11-22T04:13:30;3.17;;;1.38;;
57643;SDS011;43474;46.510;6.686;2023-11-22T04:15:56;3.28;;;1.52;;
57643;SDS011;43474;46.510;6.686;2023-11-22T04:18:22;1.88;;;1.48;;
57643;SDS011;43474;46.510;6.686;2023-11-22T04:20:47;2.60;;;1.48;;
57643;SDS011;43474;46.510;6.686;2023-11-22T04:23:13;6.18;;;2.30;;
57643;SDS011;43474;46.510;6.686;2023-11-22T04:25:40;2.20;;;1.60;;
57643;SDS011;43474;46.510;6.686;2023-11-22T04:28:07;1.60;;;1.08;;
57643;SDS011;43474;46.510;6.686;2023-11-22T04:30:35;3.15;;;1.38;;
57643;SDS011;43474;46.510;6.686;2023-11-22T04:33:01;8.95;;;1.58;;
57643;SDS011;43474;46.510;6.686;2023-11-22T04:35:27;2.72;;;2.05;;
57643;SDS011;43474;46.510;6.686;2023-11-22T04:37:53;3.05;;;1.85;;
57643;SDS011;43474;46.510;6.686;2023-11-22T04:40:20;2.20;;;1.58;;
57643;SDS011;43474;46.510;6.686;2023-11-22T04:42:46;1.40;;;1.30;;
57643;SDS011;43474;46.510;6.686;2023-11-22T04:45:13;3.95;;;1.88;;
57643;SDS011;43474;46.510;6.686;2023-11-22T04:47:39;2.22;;;1.35;;
57643;SDS011;43474;46.510;6.686;2023-11-22T04:50:05;2.08;;;1.52;;
57643;SDS011;43474;46.510;6.686;2023-11-22T04:52:32;5.05;;;1.75;;
57643;SDS011;43474;46.510;6.686;2023-11-22T04:54:58;1.40;;;1.30;;
57643;SDS011;43474;46.510;6.686;2023-11-22T04:57:23;2.25;;;1.55;;
57643;SDS011;43474;46.510;6.686;2023-11-22T04:59:49;2.40;;;1.85;;
57643;SDS011;43474;46.510;6.686;2023-11-22T05:02:14;2.33;;;1.25;;
57643;SDS011;43474;46.510;6.686;2023-11-22T05:04:41;1.75;;;1.63;;
57643;SDS011;43474;46.510;6.686;2023-11-22T05:07:07;1.73;;;1.23;;
57643;SDS011;43474;46.510;6.686;2023-11-22T05:09:33;2.83;;;2.22;;
57643;SDS011;43474;46.510;6.686;2023-11-22T05:11:59;2.08;;;1.73;;
57643;SDS011;43474;46.510;6.686;2023-11-22T05:14:25;4.07;;;1.90;;
57643;SDS011;43474;46.510;6.686;2023-11-22T05:16:51;2.40;;;1.38;;
57643;SDS011;43474;46.510;6.686;2023-11-22T05:19:17;2.65;;;1.70;;
57643;SDS011;43474;46.510;6.686;2023-11-22T05:21:44;3.47;;;1.65;;
57643;SDS011;43474;46.510;6.686;2023-11-22T05:24:10;2.50;;;1.33;;
57643;SDS011;43474;46.510;6.686;2023-11-22T05:26:35;3.00;;;1.45;;
57643;SDS011;43474;46.510;6.686;2023-11-22T05:29:01;4.80;;;2.13;;
57643;SDS011;43474;46.510;6.686;2023-11-22T05:31:29;3.78;;;2.00;;
57643;SDS011;43474;46.510;6.686;2023-11-22T05:33:55;3.35;;;1.90;;
57643;SDS011;43474;46.510;6.686;2023-11-22T05:36:21;7.45;;;2.30;;
57643;SDS011;43474;46.510;6.686;2023-11-22T05:38:46;3.53;;;1.65;;
57643;SDS011;43474;46.510;6.686;2023-11-22T05:41:14;3.25;;;1.90;;
57643;SDS011;43474;46.510;6.686;2023-11-22T05:43:41;2.47;;;1.48;;
57643;SDS011;43474;46.510;6.686;2023-11-22T05:46:08;7.25;;;1.80;;
57643;SDS011;43474;46.510;6.686;2023-11-22T05:48:34;5.00;;;2.35;;
57643;SDS011;43474;46.510;6.686;2023-11-22T05:50:59;2.50;;;1.42;;
57643;SDS011;43474;46.510;6.686;2023-11-22T05:53:25;2.13;;;1.65;;
57643;SDS011;43474;46.510;6.686;2023-11-22T05:55:51;1.85;;;1.40;;
57643;SDS011;43474;46.510;6.686;2023-11-22T05:58:18;4.25;;;2.33;;
57643;SDS011;43474;46.510;6.686;2023-11-22T06:00:44;3.33;;;1.88;;
57643;SDS011;43474;46.510;6.686;2023-11-22T06:03:13;2.70;;;2.25;;
57643;SDS011;43474;46.510;6.686;2023-11-22T06:05:39;2.53;;;1.20;;
57643;SDS011;43474;46.510;6.686;2023-11-22T06:08:06;2.38;;;1.48;;
57643;SDS011;43474;46.510;6.686;2023-11-22T06:10:31;2.45;;;1.65;;
57643;SDS011;43474;46.510;6.686;2023-11-22T06:12:57;2.08;;;1.58;;
57643;SDS011;43474;46.510;6.686;2023-11-22T06:15:23;1.63;;;1.42;;
57643;SDS011;43474;46.510;6.686;2023-11-22T06:17:49;2.60;;;2.35;;
57643;SDS011;43474;46.510;6.686;2023-11-22T06:20:15;4.47;;;2.55;;
57643;SDS011;43474;46.510;6.686;2023-11-22T06:22:41;3.97;;;1.83;;
57643;SDS011;43474;46.510;6.686;2023-11-22T06:25:13;3.20;;;2.00;;
57643;SDS011;43474;46.510;6.686;2023-11-22T06:27:39;5.07;;;2.65;;
57643;SDS011;43474;46.510;6.686;2023-11-22T06:30:05;5.25;;;2.42;;
57643;SDS011;43474;46.510;6.686;2023-11-22T06:32:32;3.15;;;2.20;;
57643;SDS011;43474;46.510;6.686;2023-11-22T06:34:59;3.20;;;2.20;;
57643;SDS011;43474;46.510;6.686;2023-11-22T06:37:25;5.82;;;2.53;;
57643;SDS011;43474;46.510;6.686;2023-11-22T06:39:50;3.63;;;2.63;;
57643;SDS011;43474;46.510;6.686;2023-11-22T06:42:16;4.28;;;2.08;;
57643;SDS011;43474;46.510;6.686;2023-11-22T06:44:42;3.50;;;2.45;;
57643;SDS011;43474;46.510;6.686;2023-11-22T06:47:08;4.05;;;2.28;;
57643;SDS011;43474;46.510;6.686;2023-11-22T06:49:34;3.35;;;2.20;;
57643;SDS011;43474;46.510;6.686;2023-11-22T06:52:00;3.35;;;1.85;;
57643;SDS011;43474;46.510;6.686;2023-11-22T06:54:25;3.13;;;1.88;;
57643;SDS011;43474;46.510;6.686;2023-11-22T06:56:51;1.45;;;1.30;;
57643;SDS011;43474;46.510;6.686;2023-11-22T06:59:18;2.70;;;1.77;;
57643;SDS011;43474;46.510;6.686;2023-11-22T07:01:44;2.88;;;2.03;;
57643;SDS011;43474;46.510;6.686;2023-11-22T07:04:10;3.38;;;2.33;;
57643;SDS011;43474;46.510;6.686;2023-11-22T07:06:37;2.83;;;1.38;;
57643;SDS011;43474;46.510;6.686;2023-11-22T07:09:06;3.85;;;2.28;;
57643;SDS011;43474;46.510;6.686;2023-11-22T07:11:35;6.85;;;1.35;;
57643;SDS011;43474;46.510;6.686;2023-11-22T07:14:02;7.30;;;2.67;;
57643;SDS011;43474;46.510;6.686;2023-11-22T07:16:29;4.18;;;2.15;;
57643;SDS011;43474;46.510;6.686;2023-11-22T07:18:56;2.30;;;1.70;;
57643;SDS011;43474;46.510;6.686;2023-11-22T07:21:22;2.53;;;1.90;;
57643;SDS011;43474;46.510;6.686;2023-11-22T07:23:48;2.22;;;1.50;;
57643;SDS011;43474;46.510;6.686;2023-11-22T07:26:14;2.63;;;1.58;;
57643;SDS011;43474;46.510;6.686;2023-11-22T07:28:40;1.05;;;0.88;;
57643;SDS011;43474;46.510;6.686;2023-11-22T07:31:07;4.35;;;1.85;;
57643;SDS011;43474;46.510;6.686;2023-11-22T07:33:33;2.28;;;1.23;;
57643;SDS011;43474;46.510;6.686;2023-11-22T07:35:58;4.15;;;1.98;;
57643;SDS011;43474;46.510;6.686;2023-11-22T07:38:24;2.22;;;1.65;;
57643;SDS011;43474;46.510;6.686;2023-11-22T07:40:50;3.17;;;1.63;;
57643;SDS011;43474;46.510;6.686;2023-11-22T07:43:16;2.88;;;1.80;;
57643;SDS011;43474;46.510;6.686;2023-11-22T07:45:44;2.38;;;1.67;;
57643;SDS011;43474;46.510;6.686;2023-11-22T07:48:13;2.50;;;1.58;;
57643;SDS011;43474;46.510;6.686;2023-11-22T07:50:39;3.35;;;2.10;;
57643;SDS011;43474;46.510;6.686;2023-11-22T07:53:05;6.32;;;1.63;;
57643;SDS011;43474;46.510;6.686;2023-11-22T07:55:35;4.65;;;1.35;;
57643;SDS011;43474;46.510;6.686;2023-11-22T07:58:02;3.28;;;1.25;;
57643;SDS011;43474;46.510;6.686;2023-11-22T08:00:28;4.63;;;1.60;;
57643;SDS011;43474;46.510;6.686;2023-11-22T08:02:55;2.28;;;1.45;;
57643;SDS011;43474;46.510;6.686;2023-11-22T08:05:22;1.27;;;1.00;;
57643;SDS011;43474;46.510;6.686;2023-11-22T08:07:49;4.63;;;1.65;;
57643;SDS011;43474;46.510;6.686;2023-11-22T08:10:14;2.55;;;1.60;;
57643;SDS011;43474;46.510;6.686;2023-11-22T08:12:46;4.13;;;1.65;;
57643;SDS011;43474;46.510;6.686;2023-11-22T08:15:15;2.58;;;1.13;;
57643;SDS011;43474;46.510;6.686;2023-11-22T08:17:41;4.50;;;1.35;;
57643;SDS011;43474;46.510;6.686;2023-11-22T08:20:08;1.65;;;1.30;;
57643;SDS011;43474;46.510;6.686;2023-11-22T08:22:39;3.50;;;1.33;;
57643;SDS011;43474;46.510;6.686;2023-11-22T08:25:08;3.05;;;1.33;;
57643;SDS011;43474;46.510;6.686;2023-11-22T08:27:40;5.63;;;1.63;;
57643;SDS011;43474;46.510;6.686;2023-11-22T08:30:08;3.72;;;1.35;;
57643;SDS011;43474;46.510;6.686;2023-11-22T08:32:45;1.83;;;1.10;;
57643;SDS011;43474;46.510;6.686;2023-11-22T08:35:16;1.42;;;1.20;;
57643;SDS011;43474;46.510;6.686;2023-11-22T08:37:42;2.28;;;1.35;;
57643;SDS011;43474;46.510;6.686;2023-11-22T08:40:09;4.57;;;1.35;;
57643;SDS011;43474;46.510;6.686;2023-11-22T08:42:48;2.13;;;1.38;;
57643;SDS011;43474;46.510;6.686;2023-11-22T08:45:15;3.90;;;1.30;;
57643;SDS011;43474;46.510;6.686;2023-11-22T08:47:40;1.75;;;1.02;;
57643;SDS011;43474;46.510;6.686;2023-11-22T08:50:10;1.33;;;1.20;;
57643;SDS011;43474;46.510;6.686;2023-11-22T08:52:38;2.72;;;1.95;;
57643;SDS011;43474;46.510;6.686;2023-11-22T08:55:05;2.55;;;1.17;;
57643;SDS011;43474;46.510;6.686;2023-11-22T08:57:35;4.18;;;1.05;;
57643;SDS011;43474;46.510;6.686;2023-11-22T09:00:02;3.22;;;1.45;;
57643;SDS011;43474;46.510;6.686;2023-11-22T09:02:32;1.38;;;1.23;;
57643;SDS011;43474;46.510;6.686;2023-11-22T09:04:58;1.33;;;1.17;;
57643;SDS011;43474;46.510;6.686;2023-11-22T09:07:24;3.10;;;1.40;;
57643;SDS011;43474;46.510;6.686;2023-11-22T09:09:49;2.90;;;1.88;;
57643;SDS011;43474;46.510;6.686;2023-11-22T09:12:19;3.47;;;1.58;;
57643;SDS011;43474;46.510;6.686;2023-11-22T09:14:46;2.78;;;1.05;;
57643;SDS011;43474;46.510;6.686;2023-11-22T09:17:12;1.50;;;1.27;;
57643;SDS011;43474;46.510;6.686;2023-11-22T09:19:39;2.90;;;1.02;;
57643;SDS011;43474;46.510;6.686;2023-11-22T09:22:04;1.30;;;0.90;;
57643;SDS011;43474;46.510;6.686;2023-11-22T09:24:34;1.80;;;1.05;;
57643;SDS011;43474;46.510;6.686;2023-11-22T09:27:02;2.38;;;1.60;;
57643;SDS011;43474;46.510;6.686;2023-11-22T09:29:31;1.80;;;1.23;;
57643;SDS011;43474;46.510;6.686;2023-11-22T09:31:58;2.17;;;1.30;;
57643;SDS011;43474;46.510;6.686;2023-11-22T09:34:26;5.80;;;1.58;;
57643;SDS011;43474;46.510;6.686;2023-11-22T09:36:52;3.58;;;1.27;;
57643;SDS011;43474;46.510;6.686;2023-11-22T09:39:19;1.13;;;0.90;;
57643;SDS011;43474;46.510;6.686;2023-11-22T09:41:47;2.85;;;1.23;;
57643;SDS011;43474;46.510;6.686;2023-11-22T09:44:14;2.88;;;1.40;;
57643;SDS011;43474;46.510;6.686;2023-11-22T09:46:42;2.17;;;1.02;;
57643;SDS011;43474;46.510;6.686;2023-11-22T09:49:08;2.03;;;1.30;;
57643;SDS011;43474;46.510;6.686;2023-11-22T09:51:40;1.88;;;0.95;;
57643;SDS011;43474;46.510;6.686;2023-11-22T09:54:09;2.55;;;1.35;;
57643;SDS011;43474;46.510;6.686;2023-11-22T09:56:39;2.63;;;1.40;;
57643;SDS011;43474;46.510;6.686;2023-11-22T09:59:07;1.75;;;0.85;;
57643;SDS011;43474;46.510;6.686;2023-11-22T10:01:33;2.03;;;0.93;;
57643;SDS011;43474;46.510;6.686;2023-11-22T10:04:02;1.27;;;1.10;;
57643;SDS011;43474;46.510;6.686;2023-11-22T10:06:30;1.70;;;1.33;;
57643;SDS011;43474;46.510;6.686;2023-11-22T10:09:03;1.17;;;0.85;;
57643;SDS011;43474;46.510;6.686;2023-11-22T10:11:32;4.03;;;0.88;;
57643;SDS011;43474;46.510;6.686;2023-11-22T10:13:58;0.88;;;0.73;;
57643;SDS011;43474;46.510;6.686;2023-11-22T10:16:24;0.90;;;0.65;;
57643;SDS011;43474;46.510;6.686;2023-11-22T10:18:50;1.10;;;0.85;;
57643;SDS011;43474;46.510;6.686;2023-11-22T10:21:23;1.42;;;1.10;;
57643;SDS011;43474;46.510;6.686;2023-11-22T10:23:50;1.90;;;1.10;;
57643;SDS011;43474;46.510;6.686;2023-11-22T10:26:18;1.10;;;1.00;;
57643;SDS011;43474;46.510;6.686;2023-11-22T10:28:45;1.55;;;1.00;;
57643;SDS011;43474;46.510;6.686;2023-11-22T10:31:10;1.20;;;1.10;;
57643;SDS011;43474;46.510;6.686;2023-11-22T10:33:39;1.95;;;1.25;;
57643;SDS011;43474;46.510;6.686;2023-11-22T10:36:07;2.03;;;1.33;;
57643;SDS011;43474;46.510;6.686;2023-11-22T10:38:33;2.00;;;1.15;;
57643;SDS011;43474;46.510;6.686;2023-11-22T10:40:59;2.35;;;1.10;;
57643;SDS011;43474;46.510;6.686;2023-11-22T10:43:27;2.35;;;1.33;;
57643;SDS011;43474;46.510;6.686;2023-11-22T10:45:57;0.80;;;0.80;;
57643;SDS011;43474;46.510;6.686;2023-11-22T10:48:23;2.40;;;1.50;;
57643;SDS011;43474;46.510;6.686;2023-11-22T10:50:50;1.40;;;0.95;;
57643;SDS011;43474;46.510;6.686;2023-11-22T10:53:21;2.00;;;1.15;;
57643;SDS011;43474;46.510;6.686;2023-11-22T10:55:52;2.33;;;1.40;;
57643;SDS011;43474;46.510;6.686;2023-11-22T10:58:24;2.28;;;0.93;;
57643;SDS011;43474;46.510;6.686;2023-11-22T11:00:53;2.13;;;1.40;;
57643;SDS011;43474;46.510;6.686;2023-11-22T11:03:20;1.42;;;1.00;;
57643;SDS011;43474;46.510;6.686;2023-11-22T11:05:50;1.85;;;1.10;;
57643;SDS011;43474;46.510;6.686;2023-11-22T11:08:19;1.10;;;0.90;;
57643;SDS011;43474;46.510;6.686;2023-11-22T11:10:48;1.13;;;1.00;;
57643;SDS011;43474;46.510;6.686;2023-11-22T11:13:15;1.17;;;0.85;;
57643;SDS011;43474;46.510;6.686;2023-11-22T11:15:41;1.63;;;0.60;;
57643;SDS011;43474;46.510;6.686;2023-11-22T11:18:13;2.55;;;1.15;;
57643;SDS011;43474;46.510;6.686;2023-11-22T11:20:52;1.03;;;0.67;;
57643;SDS011;43474;46.510;6.686;2023-11-22T11:23:22;1.25;;;0.82;;
57643;SDS011;43474;46.510;6.686;2023-11-22T11:25:53;1.50;;;0.70;;
57643;SDS011;43474;46.510;6.686;2023-11-22T11:28:21;0.52;;;0.52;;
57643;SDS011;43474;46.510;6.686;2023-11-22T11:30:47;1.23;;;0.88;;
57643;SDS011;43474;46.510;6.686;2023-11-22T11:33:15;0.50;;;0.38;;
57643;SDS011;43474;46.510;6.686;2023-11-22T11:35:48;0.65;;;0.60;;
57643;SDS011;43474;46.510;6.686;2023-11-22T11:38:16;0.93;;;0.82;;
57643;SDS011;43474;46.510;6.686;2023-11-22T11:40:48;0.50;;;0.50;;
57643;SDS011;43474;46.510;6.686;2023-11-22T11:43:20;0.77;;;0.65;;
57643;SDS011;43474;46.510;6.686;2023-11-22T11:45:46;0.60;;;0.60;;
57643;SDS011;43474;46.510;6.686;2023-11-22T11:48:12;1.25;;;0.88;;
57643;SDS011;43474;46.510;6.686;2023-11-22T11:50:39;1.92;;;1.23;;
57643;SDS011;43474;46.510;6.686;2023-11-22T11:53:05;1.08;;;0.68;;
57643;SDS011;43474;46.510;6.686;2023-11-22T11:55:31;1.10;;;1.00;;
57643;SDS011;43474;46.510;6.686;2023-11-22T11:57:57;0.70;;;0.70;;
57643;SDS011;43474;46.510;6.686;2023-11-22T12:00:30;1.02;;;0.68;;
57643;SDS011;43474;46.510;6.686;2023-11-22T12:02:55;0.85;;;0.70;;
57643;SDS011;43474;46.510;6.686;2023-11-22T12:05:21;2.97;;;0.70;;
57643;SDS011;43474;46.510;6.686;2023-11-22T12:07:47;3.88;;;0.63;;
57643;SDS011;43474;46.510;6.686;2023-11-22T12:10:13;0.77;;;0.63;;
57643;SDS011;43474;46.510;6.686;2023-11-22T12:12:39;1.00;;;0.88;;
57643;SDS011;43474;46.510;6.686;2023-11-22T12:15:09;1.83;;;1.08;;
57643;SDS011;43474;46.510;6.686;2023-11-22T12:17:35;0.95;;;0.75;;
57643;SDS011;43474;46.510;6.686;2023-11-22T12:20:14;2.13;;;1.10;;
57643;SDS011;43474;46.510;6.686;2023-11-22T12:22:47;2.17;;;1.40;;
57643;SDS011;43474;46.510;6.686;2023-11-22T12:25:13;1.27;;;0.70;;
57643;SDS011;43474;46.510;6.686;2023-11-22T12:27:41;1.33;;;0.95;;
57643;SDS011;43474;46.510;6.686;2023-11-22T12:30:08;2.28;;;0.90;;
57643;SDS011;43474;46.510;6.686;2023-11-22T12:32:37;1.40;;;0.80;;
57643;SDS011;43474;46.510;6.686;2023-11-22T12:35:04;0.93;;;0.80;;
57643;SDS011;43474;46.510;6.686;2023-11-22T12:37:30;1.08;;;0.68;;
57643;SDS011;43474;46.510;6.686;2023-11-22T12:39:56;2.22;;;1.25;;
57643;SDS011;43474;46.510;6.686;2023-11-22T12:42:22;1.60;;;0.98;;
57643;SDS011;43474;46.510;6.686;2023-11-22T12:44:48;1.15;;;0.93;;
57643;SDS011;43474;46.510;6.686;2023-11-22T12:47:14;1.65;;;1.15;;
57643;SDS011;43474;46.510;6.686;2023-11-22T12:49:47;2.15;;;1.10;;
57643;SDS011;43474;46.510;6.686;2023-11-22T12:52:13;1.02;;;0.93;;
57643;SDS011;43474;46.510;6.686;2023-11-22T12:54:39;2.75;;;1.17;;
57643;SDS011;43474;46.510;6.686;2023-11-22T12:57:09;1.55;;;0.63;;
57643;SDS011;43474;46.510;6.686;2023-11-22T12:59:38;1.13;;;0.80;;
57643;SDS011;43474;46.510;6.686;2023-11-22T13:02:05;0.82;;;0.63;;
57643;SDS011;43474;46.510;6.686;2023-11-22T13:04:32;1.13;;;0.80;;
57643;SDS011;43474;46.510;6.686;2023-11-22T13:06:58;1.30;;;0.70;;
57643;SDS011;43474;46.510;6.686;2023-11-22T13:09:25;0.93;;;0.82;;
57643;SDS011;43474;46.510;6.686;2023-11-22T13:11:52;0.88;;;0.80;;
57643;SDS011;43474;46.510;6.686;2023-11-22T13:14:17;1.48;;;1.08;;
57643;SDS011;43474;46.510;6.686;2023-11-22T13:16:44;1.42;;;0.57;;
57643;SDS011;43474;46.510;6.686;2023-11-22T13:19:10;0.95;;;0.90;;
57643;SDS011;43474;46.510;6.686;2023-11-22T13:21:36;1.50;;;0.70;;
57643;SDS011;43474;46.510;6.686;2023-11-22T13:24:02;0.68;;;0.52;;
57643;SDS011;43474;46.510;6.686;2023-11-22T13:26:32;0.50;;;0.50;;
57643;SDS011;43474;46.510;6.686;2023-11-22T13:28:59;1.23;;;1.00;;
57643;SDS011;43474;46.510;6.686;2023-11-22T13:31:25;0.90;;;0.77;;
57643;SDS011;43474;46.510;6.686;2023-11-22T13:33:50;2.17;;;0.90;;
57643;SDS011;43474;46.510;6.686;2023-11-22T13:36:16;0.32;;;0.32;;
57643;SDS011;43474;46.510;6.686;2023-11-22T13:38:42;0.65;;;0.65;;
57643;SDS011;43474;46.510;6.686;2023-11-22T13:41:08;0.80;;;0.50;;
57643;SDS011;43474;46.510;6.686;2023-11-22T13:43:34;1.35;;;0.68;;
57643;SDS011;43474;46.510;6.686;2023-11-22T13:46:00;1.83;;;0.80;;
57643;SDS011;43474;46.510;6.686;2023-11-22T13:48:26;1.20;;;0.75;;
57643;SDS011;43474;46.510;6.686;2023-11-22T13:50:51;0.90;;;0.70;;
57643;SDS011;43474;46.510;6.686;2023-11-22T13:53:17;1.08;;;0.80;;
57643;SDS011;43474;46.510;6.686;2023-11-22T13:55:47;1.20;;;0.60;;
57643;SDS011;43474;46.510;6.686;2023-11-22T13:58:15;0.80;;;0.50;;
57643;SDS011;43474;46.510;6.686;2023-11-22T14:00:41;1.67;;;0.70;;
57643;SDS011;43474;46.510;6.686;2023-11-22T14:03:06;0.88;;;0.68;;
57643;SDS011;43474;46.510;6.686;2023-11-22T14:05:34;1.60;;;1.00;;
57643;SDS011;43474;46.510;6.686;2023-11-22T14:08:01;3.70;;;0.70;;
57643;SDS011;43474;46.510;6.686;2023-11-22T14:10:27;1.60;;;0.55;;
57643;SDS011;43474;46.510;6.686;2023-11-22T14:12:57;1.73;;;0.90;;
57643;SDS011;43474;46.510;6.686;2023-11-22T14:15:26;1.20;;;0.65;;
57643;SDS011;43474;46.510;6.686;2023-11-22T14:17:53;1.48;;;0.80;;
57643;SDS011;43474;46.510;6.686;2023-11-22T14:20:20;1.00;;;0.93;;
57643;SDS011;43474;46.510;6.686;2023-11-22T14:22:46;2.40;;;1.38;;
57643;SDS011;43474;46.510;6.686;2023-11-22T14:25:13;1.38;;;0.90;;
57643;SDS011;43474;46.510;6.686;2023-11-22T14:27:44;1.23;;;0.95;;
57643;SDS011;43474;46.510;6.686;2023-11-22T14:30:11;1.05;;;0.80;;
57643;SDS011;43474;46.510;6.686;2023-11-22T14:32:40;0.93;;;0.82;;
57643;SDS011;43474;46.510;6.686;2023-11-22T14:35:08;1.13;;;0.93;;
57643;SDS011;43474;46.510;6.686;2023-11-22T14:37:34;3.40;;;1.00;;
57643;SDS011;43474;46.510;6.686;2023-11-22T14:40:01;1.70;;;0.98;;
57643;SDS011;43474;46.510;6.686;2023-11-22T14:42:29;1.40;;;0.77;;
57643;SDS011;43474;46.510;6.686;2023-11-22T14:44:57;1.65;;;0.47;;
57643;SDS011;43474;46.510;6.686;2023-11-22T14:47:22;1.17;;;0.63;;